sensor_id;sensor_type;location;lat;lon;timestamp;pressure;altitude;pressure_sealevel;temperature;humidity
59391;BME280;53405;57.012;40.984;2022-12-07T00:00:31;101534.75;;;-8.04;72.64
59391;BME280;53405;57.012;40.984;2022-12-07T00:03:18;101539.31;;;-8.27;72.81
59391;BME280;53405;57.012;40.984;2022-12-07T00:06:08;101530.69;;;-8.20;73.02
59391;BME280;53405;57.012;40.984;2022-12-07T00:08:56;101526.22;;;-8.04;72.62
59391;BME280;53405;57.012;40.984;2022-12-07T00:11:44;101526.53;;;-8.27;72.17
59391;BME280;53405;57.012;40.984;2022-12-07T00:14:32;101521.97;;;-8.04;73.46
59391;BME280;53405;57.012;40.984;2022-12-07T00:17:20;101530.75;;;-8.25;73.16
59391;BME280;53405;57.012;40.984;2022-12-07T00:20:07;101518.59;;;-8.09;72.92
59391;BME280;53405;57.012;40.984;2022-12-07T00:22:55;101521.09;;;-8.04;72.35
59391;BME280;53405;57.012;40.984;2022-12-07T00:25:43;101524.44;;;-7.97;71.59
59391;BME280;53405;57.012;40.984;2022-12-07T00:28:31;101520.28;;;-8.06;71.11
59391;BME280;53405;57.012;40.984;2022-12-07T00:31:24;101523.97;;;-8.27;73.13
59391;BME280;53405;57.012;40.984;2022-12-07T00:34:14;101518.75;;;-8.18;73.18
59391;BME280;53405;57.012;40.984;2022-12-07T00:37:02;101521.91;;;-8.01;72.09
59391;BME280;53405;57.012;40.984;2022-12-07T00:39:50;101519.22;;;-7.91;71.82
59391;BME280;53405;57.012;40.984;2022-12-07T00:42:37;101533.78;;;-7.98;71.09
59391;BME280;53405;57.012;40.984;2022-12-07T00:45:25;101533.34;;;-8.28;72.61
59391;BME280;53405;57.012;40.984;2022-12-07T00:48:12;101534.13;;;-8.21;73.89
59391;BME280;53405;57.012;40.984;2022-12-07T00:51:00;101509.66;;;-8.41;72.13
59391;BME280;53405;57.012;40.984;2022-12-07T00:53:48;101537.63;;;-8.30;73.70
59391;BME280;53405;57.012;40.984;2022-12-07T00:56:35;101519.25;;;-8.55;73.12
59391;BME280;53405;57.012;40.984;2022-12-07T00:59:23;101529.22;;;-8.37;72.84
59391;BME280;53405;57.012;40.984;2022-12-07T01:02:11;101537.75;;;-8.39;72.54
59391;BME280;53405;57.012;40.984;2022-12-07T01:04:58;101539.13;;;-8.13;72.13
59391;BME280;53405;57.012;40.984;2022-12-07T01:07:46;101541.88;;;-8.27;73.33
59391;BME280;53405;57.012;40.984;2022-12-07T01:10:33;101549.47;;;-8.21;72.88
59391;BME280;53405;57.012;40.984;2022-12-07T01:13:21;101536.66;;;-8.20;72.09
59391;BME280;53405;57.012;40.984;2022-12-07T01:16:11;101547.22;;;-8.44;72.69
59391;BME280;53405;57.012;40.984;2022-12-07T01:19:02;101540.34;;;-8.42;73.38
59391;BME280;53405;57.012;40.984;2022-12-07T01:21:51;101540.94;;;-8.22;72.09
59391;BME280;53405;57.012;40.984;2022-12-07T01:24:39;101548.19;;;-8.55;72.35
59391;BME280;53405;57.012;40.984;2022-12-07T01:27:27;101557.34;;;-8.40;71.96
59391;BME280;53405;57.012;40.984;2022-12-07T01:30:15;101551.53;;;-8.48;72.74
59391;BME280;53405;57.012;40.984;2022-12-07T01:33:03;101525.59;;;-8.90;72.43
59391;BME280;53405;57.012;40.984;2022-12-07T01:35:50;101527.91;;;-8.67;73.28
59391;BME280;53405;57.012;40.984;2022-12-07T01:38:38;101553.59;;;-8.81;73.16
59391;BME280;53405;57.012;40.984;2022-12-07T01:41:29;101545.16;;;-8.86;72.77
59391;BME280;53405;57.012;40.984;2022-12-07T01:44:21;101550.06;;;-8.69;73.21
59391;BME280;53405;57.012;40.984;2022-12-07T01:47:09;101545.84;;;-8.73;72.87
59391;BME280;53405;57.012;40.984;2022-12-07T01:49:57;101550.91;;;-8.67;73.88
59391;BME280;53405;57.012;40.984;2022-12-07T01:52:47;101554.31;;;-8.69;73.47
59391;BME280;53405;57.012;40.984;2022-12-07T01:55:38;101556.28;;;-8.93;73.58
59391;BME280;53405;57.012;40.984;2022-12-07T01:58:28;101541.81;;;-8.96;73.18
59391;BME280;53405;57.012;40.984;2022-12-07T02:01:16;101546.16;;;-9.04;73.65
59391;BME280;53405;57.012;40.984;2022-12-07T02:04:04;101542.06;;;-9.20;74.23
59391;BME280;53405;57.012;40.984;2022-12-07T02:06:54;101547.69;;;-8.86;73.52
59391;BME280;53405;57.012;40.984;2022-12-07T02:09:42;101549.38;;;-8.86;74.31
59391;BME280;53405;57.012;40.984;2022-12-07T02:12:30;101550.28;;;-8.89;74.18
59391;BME280;53405;57.012;40.984;2022-12-07T02:18:58;101546.94;;;-8.99;73.84
59391;BME280;53405;57.012;40.984;2022-12-07T02:22:01;101558.84;;;-8.95;73.75
59391;BME280;53405;57.012;40.984;2022-12-07T02:31:22;101550.59;;;-9.24;74.69
59391;BME280;53405;57.012;40.984;2022-12-07T02:43:30;101553.34;;;-9.49;74.85
59391;BME280;53405;57.012;40.984;2022-12-07T02:46:23;101536.19;;;-9.33;74.62
59391;BME280;53405;57.012;40.984;2022-12-07T02:49:11;101550.63;;;-9.29;74.59
59391;BME280;53405;57.012;40.984;2022-12-07T02:52:00;101535.50;;;-9.52;73.51
59391;BME280;53405;57.012;40.984;2022-12-07T02:54:48;101549.22;;;-9.64;74.33
59391;BME280;53405;57.012;40.984;2022-12-07T02:57:49;101558.47;;;-9.54;74.06
59391;BME280;53405;57.012;40.984;2022-12-07T03:00:58;101554.03;;;-9.29;75.32
59391;BME280;53405;57.012;40.984;2022-12-07T03:04:14;101565.19;;;-9.39;73.36
59391;BME280;53405;57.012;40.984;2022-12-07T03:07:10;101561.97;;;-9.66;74.32
59391;BME280;53405;57.012;40.984;2022-12-07T03:10:08;101556.75;;;-9.49;75.39
59391;BME280;53405;57.012;40.984;2022-12-07T03:15:59;101557.66;;;-9.57;73.95
59391;BME280;53405;57.012;40.984;2022-12-07T03:18:59;101565.44;;;-9.77;73.92
59391;BME280;53405;57.012;40.984;2022-12-07T03:21:54;101565.44;;;-9.74;74.91
59391;BME280;53405;57.012;40.984;2022-12-07T03:25:04;101536.50;;;-9.70;74.77
59391;BME280;53405;57.012;40.984;2022-12-07T03:27:57;101562.88;;;-9.73;74.12
59391;BME280;53405;57.012;40.984;2022-12-07T03:33:49;101537.38;;;-9.76;73.30
59391;BME280;53405;57.012;40.984;2022-12-07T03:36:48;101562.97;;;-9.85;74.02
59391;BME280;53405;57.012;40.984;2022-12-07T03:42:45;101560.50;;;-9.97;75.26
59391;BME280;53405;57.012;40.984;2022-12-07T03:45:42;101547.81;;;-10.11;74.93
59391;BME280;53405;57.012;40.984;2022-12-07T03:49:32;101562.03;;;-9.75;74.90
59391;BME280;53405;57.012;40.984;2022-12-07T03:52:11;101561.97;;;-9.66;73.44
59391;BME280;53405;57.012;40.984;2022-12-07T03:57:54;101569.63;;;-9.63;73.75
59391;BME280;53405;57.012;40.984;2022-12-07T04:00:44;101563.69;;;-9.66;73.01
59391;BME280;53405;57.012;40.984;2022-12-07T04:03:32;101565.38;;;-9.67;73.10
59391;BME280;53405;57.012;40.984;2022-12-07T04:06:20;101562.03;;;-9.76;73.98
59391;BME280;53405;57.012;40.984;2022-12-07T04:09:07;101557.66;;;-9.57;73.51
59391;BME280;53405;57.012;40.984;2022-12-07T04:11:55;101558.66;;;-9.75;73.65
59391;BME280;53405;57.012;40.984;2022-12-07T04:14:42;101556.97;;;-9.79;73.64
59391;BME280;53405;57.012;40.984;2022-12-07T04:17:30;101557.78;;;-9.76;73.98
59391;BME280;53405;57.012;40.984;2022-12-07T04:20:18;101542.59;;;-9.88;73.55
59391;BME280;53405;57.012;40.984;2022-12-07T04:23:05;101563.84;;;-9.92;73.62
59391;BME280;53405;57.012;40.984;2022-12-07T04:25:53;101556.22;;;-9.99;73.44
59391;BME280;53405;57.012;40.984;2022-12-07T04:28:41;101560.53;;;-10.07;73.59
59391;BME280;53405;57.012;40.984;2022-12-07T04:31:28;101572.47;;;-10.15;74.24
59391;BME280;53405;57.012;40.984;2022-12-07T04:34:17;101566.47;;;-10.06;74.94
59391;BME280;53405;57.012;40.984;2022-12-07T04:37:04;101567.34;;;-10.10;75.08
59391;BME280;53405;57.012;40.984;2022-12-07T04:39:52;101552.09;;;-10.15;73.94
59391;BME280;53405;57.012;40.984;2022-12-07T04:42:40;101563.94;;;-10.08;74.53
59391;BME280;53405;57.012;40.984;2022-12-07T04:45:28;101566.41;;;-9.95;74.13
59391;BME280;53405;57.012;40.984;2022-12-07T04:48:15;101570.69;;;-9.99;73.83
59391;BME280;53405;57.012;40.984;2022-12-07T04:51:03;101575.00;;;-10.07;73.45
59391;BME280;53405;57.012;40.984;2022-12-07T04:53:51;101580.09;;;-10.12;73.47
59391;BME280;53405;57.012;40.984;2022-12-07T04:56:39;101540.31;;;-10.36;73.63
59391;BME280;53405;57.012;40.984;2022-12-07T04:59:26;101574.09;;;-10.00;74.81
59391;BME280;53405;57.012;40.984;2022-12-07T05:02:14;101550.34;;;-10.08;74.14
59391;BME280;53405;57.012;40.984;2022-12-07T05:05:02;101566.50;;;-10.11;74.18
59391;BME280;53405;57.012;40.984;2022-12-07T05:07:50;101580.94;;;-10.08;74.21
59391;BME280;53405;57.012;40.984;2022-12-07T05:10:38;101575.84;;;-10.10;74.61
59391;BME280;53405;57.012;40.984;2022-12-07T05:13:25;101566.50;;;-10.15;73.95
59391;BME280;53405;57.012;40.984;2022-12-07T05:16:13;101574.09;;;-10.05;73.71
59391;BME280;53405;57.012;40.984;2022-12-07T05:19:00;101579.22;;;-10.05;73.57
59391;BME280;53405;57.012;40.984;2022-12-07T05:21:48;101581.84;;;-10.25;73.68
59391;BME280;53405;57.012;40.984;2022-12-07T05:24:36;101565.59;;;-9.99;73.76
59391;BME280;53405;57.012;40.984;2022-12-07T05:27:23;101581.75;;;-10.05;73.32
59391;BME280;53405;57.012;40.984;2022-12-07T05:30:11;101584.31;;;-10.08;73.59
59391;BME280;53405;57.012;40.984;2022-12-07T05:32:59;101586.03;;;-10.10;74.48
59391;BME280;53405;57.012;40.984;2022-12-07T05:35:47;101583.53;;;-10.24;73.63
59391;BME280;53405;57.012;40.984;2022-12-07T05:38:34;101578.47;;;-10.28;73.33
59391;BME280;53405;57.012;40.984;2022-12-07T05:41:22;101587.78;;;-10.18;73.32
59391;BME280;53405;57.012;40.984;2022-12-07T05:44:28;101584.44;;;-10.29;72.73
59391;BME280;53405;57.012;40.984;2022-12-07T05:47:16;101584.47;;;-10.32;74.04
59391;BME280;53405;57.012;40.984;2022-12-07T05:50:05;101586.09;;;-10.22;73.40
59391;BME280;53405;57.012;40.984;2022-12-07T05:52:52;101592.88;;;-10.18;73.14
59391;BME280;53405;57.012;40.984;2022-12-07T05:55:40;101583.50;;;-10.14;72.17
59391;BME280;53405;57.012;40.984;2022-12-07T05:58:27;101591.19;;;-10.22;73.84
59391;BME280;53405;57.012;40.984;2022-12-07T06:01:33;101581.81;;;-10.15;73.10
59391;BME280;53405;57.012;40.984;2022-12-07T06:04:22;101585.22;;;-10.13;72.60
59391;BME280;53405;57.012;40.984;2022-12-07T06:07:11;101587.75;;;-10.09;72.50
59391;BME280;53405;57.012;40.984;2022-12-07T06:09:59;101585.22;;;-10.13;72.70
59391;BME280;53405;57.012;40.984;2022-12-07T06:12:48;101586.00;;;-10.04;73.16
59391;BME280;53405;57.012;40.984;2022-12-07T06:15:36;101595.38;;;-10.07;72.51
59391;BME280;53405;57.012;40.984;2022-12-07T06:18:24;101575.91;;;-10.28;71.89
59391;BME280;53405;57.012;40.984;2022-12-07T06:21:12;101588.63;;;-10.19;72.98
59391;BME280;53405;57.012;40.984;2022-12-07T06:23:59;101593.69;;;-10.08;72.44
59391;BME280;53405;57.012;40.984;2022-12-07T06:26:47;101609.03;;;-10.27;72.56
59391;BME280;53405;57.012;40.984;2022-12-07T06:29:35;101599.78;;;-10.40;73.13
59391;BME280;53405;57.012;40.984;2022-12-07T06:32:22;101594.69;;;-10.43;72.88
59391;BME280;53405;57.012;40.984;2022-12-07T06:35:10;101600.63;;;-10.37;73.42
59391;BME280;53405;57.012;40.984;2022-12-07T06:37:58;101604.88;;;-10.40;73.11
59391;BME280;53405;57.012;40.984;2022-12-07T06:40:45;101600.38;;;-9.93;74.11
59391;BME280;53405;57.012;40.984;2022-12-07T06:43:33;101609.66;;;-9.77;71.67
59391;BME280;53405;57.012;40.984;2022-12-07T06:46:21;101602.88;;;-9.81;72.05
59391;BME280;53405;57.012;40.984;2022-12-07T06:49:09;101602.06;;;-9.89;71.90
59391;BME280;53405;57.012;40.984;2022-12-07T06:51:56;101592.81;;;-10.06;72.69
59391;BME280;53405;57.012;40.984;2022-12-07T06:54:44;101602.13;;;-9.99;72.19
59391;BME280;53405;57.012;40.984;2022-12-07T06:57:32;101603.88;;;-10.08;72.95
59391;BME280;53405;57.012;40.984;2022-12-07T07:00:20;101609.78;;;-9.99;72.62
59391;BME280;53405;57.012;40.984;2022-12-07T07:03:08;101598.78;;;-10.11;71.90
59391;BME280;53405;57.012;40.984;2022-12-07T07:05:56;101604.72;;;-10.08;73.29
59391;BME280;53405;57.012;40.984;2022-12-07T07:08:43;101605.41;;;-9.76;72.74
59391;BME280;53405;57.012;40.984;2022-12-07T07:11:31;101602.78;;;-9.63;74.60
59391;BME280;53405;57.012;40.984;2022-12-07T07:14:18;101603.72;;;-9.81;72.07
59391;BME280;53405;57.012;40.984;2022-12-07T07:17:07;101603.69;;;-9.79;72.44
59391;BME280;53405;57.012;40.984;2022-12-07T07:19:54;101608.72;;;-9.65;71.93
59391;BME280;53405;57.012;40.984;2022-12-07T07:22:42;101588.06;;;-9.27;71.89
59391;BME280;53405;57.012;40.984;2022-12-07T07:25:30;101602.47;;;-9.24;75.20
59391;BME280;53405;57.012;40.984;2022-12-07T07:28:17;101595.63;;;-9.16;74.66
59391;BME280;53405;57.012;40.984;2022-12-07T07:31:04;101608.19;;;-8.96;73.55
59391;BME280;53405;57.012;40.984;2022-12-07T07:33:52;101615.06;;;-9.01;70.57
59391;BME280;53405;57.012;40.984;2022-12-07T07:36:40;101616.03;;;-9.14;72.11
59391;BME280;53405;57.012;40.984;2022-12-07T07:39:27;101619.56;;;-9.32;71.33
59391;BME280;53405;57.012;40.984;2022-12-07T07:42:15;101615.13;;;-9.07;70.87
59391;BME280;53405;57.012;40.984;2022-12-07T07:45:03;101611.63;;;-8.97;71.83
59391;BME280;53405;57.012;40.984;2022-12-07T07:47:51;101608.13;;;-8.88;70.69
59391;BME280;53405;57.012;40.984;2022-12-07T07:50:39;101609.47;;;-8.51;71.24
59391;BME280;53405;57.012;40.984;2022-12-07T07:53:27;101604.28;;;-8.45;70.95
59391;BME280;53405;57.012;40.984;2022-12-07T07:56:15;101613.44;;;-8.27;70.71
59391;BME280;53405;57.012;40.984;2022-12-07T07:59:03;101597.09;;;-8.14;67.57
59391;BME280;53405;57.012;40.984;2022-12-07T08:01:51;101593.09;;;-7.71;69.00
59391;BME280;53405;57.012;40.984;2022-12-07T08:04:38;101598.06;;;-7.60;69.25
59391;BME280;53405;57.012;40.984;2022-12-07T08:07:27;101590.19;;;-7.47;68.67
59391;BME280;53405;57.012;40.984;2022-12-07T08:10:15;101593.00;;;-7.07;66.57
59391;BME280;53405;57.012;40.984;2022-12-07T08:13:03;101579.97;;;-7.47;67.22
59391;BME280;53405;57.012;40.984;2022-12-07T08:16:09;101586.38;;;-7.21;68.49
59391;BME280;53405;57.012;40.984;2022-12-07T08:18:57;101578.78;;;-7.82;67.89
59391;BME280;53405;57.012;40.984;2022-12-07T08:21:45;101564.84;;;-7.64;68.69
59391;BME280;53405;57.012;40.984;2022-12-07T08:24:36;101584.81;;;-7.89;68.45
59391;BME280;53405;57.012;40.984;2022-12-07T08:27:23;101584.03;;;-7.35;69.68
59391;BME280;53405;57.012;40.984;2022-12-07T08:30:14;101565.25;;;-7.35;66.93
59391;BME280;53405;57.012;40.984;2022-12-07T08:33:02;101568.38;;;-7.69;69.39
59391;BME280;53405;57.012;40.984;2022-12-07T08:35:50;101589.94;;;-7.89;69.70
59391;BME280;53405;57.012;40.984;2022-12-07T08:38:39;101578.56;;;-8.33;72.21
59391;BME280;53405;57.012;40.984;2022-12-07T08:41:29;101577.88;;;-8.44;72.36
59391;BME280;53405;57.012;40.984;2022-12-07T08:44:17;101589.16;;;-8.62;72.71
59391;BME280;53405;57.012;40.984;2022-12-07T08:47:05;101571.41;;;-8.73;73.25
59391;BME280;53405;57.012;40.984;2022-12-07T08:49:55;101581.28;;;-8.45;73.79
59391;BME280;53405;57.012;40.984;2022-12-07T08:52:43;101579.41;;;-8.32;73.07
59391;BME280;53405;57.012;40.984;2022-12-07T08:55:31;101582.88;;;-8.37;72.72
59391;BME280;53405;57.012;40.984;2022-12-07T08:58:20;101584.88;;;-8.60;73.06
59391;BME280;53405;57.012;40.984;2022-12-07T09:01:07;101581.09;;;-8.31;73.65
59391;BME280;53405;57.012;40.984;2022-12-07T09:03:55;101567.03;;;-8.63;73.79
59391;BME280;53405;57.012;40.984;2022-12-07T09:06:43;101590.59;;;-8.41;73.81
59391;BME280;53405;57.012;40.984;2022-12-07T09:09:30;101579.53;;;-8.40;73.01
59391;BME280;53405;57.012;40.984;2022-12-07T09:12:18;101570.31;;;-8.54;73.85
59391;BME280;53405;57.012;40.984;2022-12-07T09:15:06;101578.63;;;-8.38;73.78
59391;BME280;53405;57.012;40.984;2022-12-07T09:17:55;101571.84;;;-8.40;72.70
59391;BME280;53405;57.012;40.984;2022-12-07T09:20:43;101574.31;;;-8.36;74.47
59391;BME280;53405;57.012;40.984;2022-12-07T09:23:31;101574.09;;;-8.17;74.65
59391;BME280;53405;57.012;40.984;2022-12-07T09:26:19;101568.94;;;-8.12;72.69
59391;BME280;53405;57.012;40.984;2022-12-07T09:29:06;101565.66;;;-8.21;72.90
59391;BME280;53405;57.012;40.984;2022-12-07T09:31:54;101544.53;;;-8.37;73.03
59391;BME280;53405;57.012;40.984;2022-12-07T09:34:41;101566.59;;;-8.29;72.70
59391;BME280;53405;57.012;40.984;2022-12-07T09:37:29;101571.75;;;-8.32;73.50
59391;BME280;53405;57.012;40.984;2022-12-07T09:40:20;101569.97;;;-8.24;72.95
59391;BME280;53405;57.012;40.984;2022-12-07T09:43:15;101565.59;;;-8.18;74.39
59391;BME280;53405;57.012;40.984;2022-12-07T09:46:04;101559.66;;;-8.18;72.60
59391;BME280;53405;57.012;40.984;2022-12-07T09:48:52;101549.50;;;-8.24;72.99
59391;BME280;53405;57.012;40.984;2022-12-07T09:51:39;101558.19;;;-8.38;74.01
59391;BME280;53405;57.012;40.984;2022-12-07T09:54:27;101539.50;;;-8.43;74.37
59391;BME280;53405;57.012;40.984;2022-12-07T09:57:17;101533.31;;;-8.25;73.41
59391;BME280;53405;57.012;40.984;2022-12-07T10:00:16;101566.34;;;-8.09;72.83
59391;BME280;53405;57.012;40.984;2022-12-07T10:03:05;101548.63;;;-8.23;72.71
59391;BME280;53405;57.012;40.984;2022-12-07T10:05:55;101557.13;;;-8.20;73.43
59391;BME280;53405;57.012;40.984;2022-12-07T10:08:44;101560.28;;;-8.02;72.54
59391;BME280;53405;57.012;40.984;2022-12-07T10:11:32;101557.78;;;-8.05;73.15
59391;BME280;53405;57.012;40.984;2022-12-07T10:14:19;101555.06;;;-7.93;72.39
59391;BME280;53405;57.012;40.984;2022-12-07T10:20:27;101540.63;;;-7.99;74.30
59391;BME280;53405;57.012;40.984;2022-12-07T10:23:18;101550.03;;;-7.99;72.76
59391;BME280;53405;57.012;40.984;2022-12-07T10:26:26;101541.97;;;-7.74;74.46
59391;BME280;53405;57.012;40.984;2022-12-07T10:29:24;101535.28;;;-7.82;72.40
59391;BME280;53405;57.012;40.984;2022-12-07T10:35:24;101539.56;;;-7.85;74.04
59391;BME280;53405;57.012;40.984;2022-12-07T10:38:16;101540.50;;;-7.89;73.00
59391;BME280;53405;57.012;40.984;2022-12-07T10:41:06;101540.34;;;-7.78;73.42
59391;BME280;53405;57.012;40.984;2022-12-07T10:43:56;101535.16;;;-7.72;73.24
59391;BME280;53405;57.012;40.984;2022-12-07T10:46:55;101532.50;;;-7.66;73.74
59391;BME280;53405;57.012;40.984;2022-12-07T11:00:04;101546.25;;;-7.75;70.78
59391;BME280;53405;57.012;40.984;2022-12-07T11:03:17;101531.94;;;-7.88;72.15
59391;BME280;53405;57.012;40.984;2022-12-07T11:16:19;101527.44;;;-7.71;71.07
59391;BME280;53405;57.012;40.984;2022-12-07T11:19:31;101541.72;;;-7.57;70.28
59391;BME280;53405;57.012;40.984;2022-12-07T11:25:31;101531.09;;;-7.87;71.00
59391;BME280;53405;57.012;40.984;2022-12-07T11:28:33;101532.94;;;-7.97;71.89
59391;BME280;53405;57.012;40.984;2022-12-07T11:31:47;101521.31;;;-8.18;72.87
59391;BME280;53405;57.012;40.984;2022-12-07T11:34:47;101521.22;;;-8.13;72.45
59391;BME280;53405;57.012;40.984;2022-12-07T11:37:38;101513.78;;;-8.30;73.13
59391;BME280;53405;57.012;40.984;2022-12-07T11:40:35;101523.06;;;-8.25;73.77
59391;BME280;53405;57.012;40.984;2022-12-07T11:43:31;101513.69;;;-8.21;72.95
59391;BME280;53405;57.012;40.984;2022-12-07T11:46:26;101517.22;;;-8.31;73.48
59391;BME280;53405;57.012;40.984;2022-12-07T11:49:26;101517.25;;;-8.35;73.88
59391;BME280;53405;57.012;40.984;2022-12-07T11:52:16;101512.97;;;-8.34;73.24
59391;BME280;53405;57.012;40.984;2022-12-07T11:55:17;101514.75;;;-8.41;73.34
59391;BME280;53405;57.012;40.984;2022-12-07T12:01:33;101507.56;;;-8.75;74.68
59391;BME280;53405;57.012;40.984;2022-12-07T12:04:34;101507.38;;;-8.61;73.85
59391;BME280;53405;57.012;40.984;2022-12-07T12:07:27;101496.50;;;-8.78;74.63
59391;BME280;53405;57.012;40.984;2022-12-07T12:11:00;101499.22;;;-8.89;75.52
59391;BME280;53405;57.012;40.984;2022-12-07T12:26:33;101510.31;;;-8.93;75.53
59391;BME280;53405;57.012;40.984;2022-12-07T12:29:30;101509.50;;;-8.97;74.75
59391;BME280;53405;57.012;40.984;2022-12-07T12:32:37;101516.25;;;-8.94;74.89
59391;BME280;53405;57.012;40.984;2022-12-07T12:38:33;101513.81;;;-9.05;75.26
59391;BME280;53405;57.012;40.984;2022-12-07T12:44:38;101510.50;;;-9.12;75.66
59391;BME280;53405;57.012;40.984;2022-12-07T12:47:51;101511.41;;;-9.16;75.89
59391;BME280;53405;57.012;40.984;2022-12-07T12:50:40;101499.38;;;-9.06;76.96
59391;BME280;53405;57.012;40.984;2022-12-07T12:53:28;101484.16;;;-9.17;76.20
59391;BME280;53405;57.012;40.984;2022-12-07T12:57:22;101503.59;;;-9.03;75.34
59391;BME280;53405;57.012;40.984;2022-12-07T13:02:53;101488.59;;;-9.33;76.77
59391;BME280;53405;57.012;40.984;2022-12-07T13:05:41;101498.78;;;-9.31;76.24
59391;BME280;53405;57.012;40.984;2022-12-07T13:08:30;101494.41;;;-9.20;77.06
59391;BME280;53405;57.012;40.984;2022-12-07T13:11:32;101501.16;;;-9.13;77.34
59391;BME280;53405;57.012;40.984;2022-12-07T13:20:45;101494.34;;;-9.12;76.26
59391;BME280;53405;57.012;40.984;2022-12-07T13:26:39;101477.41;;;-9.22;76.58
59391;BME280;53405;57.012;40.984;2022-12-07T13:29:36;101486.69;;;-9.12;76.36
59391;BME280;53405;57.012;40.984;2022-12-07T13:32:29;101500.31;;;-9.16;75.76
59391;BME280;53405;57.012;40.984;2022-12-07T13:35:34;101461.53;;;-9.51;76.29
59391;BME280;53405;57.012;40.984;2022-12-07T13:38:30;101486.06;;;-9.36;77.79
59391;BME280;53405;57.012;40.984;2022-12-07T13:41:21;101480.97;;;-9.36;77.02
59391;BME280;53405;57.012;40.984;2022-12-07T13:44:12;101486.75;;;-9.18;76.90
59391;BME280;53405;57.012;40.984;2022-12-07T13:47:14;101493.59;;;-9.23;76.73
59391;BME280;53405;57.012;40.984;2022-12-07T13:50:23;101479.19;;;-9.29;75.99
59391;BME280;53405;57.012;40.984;2022-12-07T13:53:13;101480.88;;;-9.28;77.69
59391;BME280;53405;57.012;40.984;2022-12-07T13:56:01;101475.78;;;-9.27;76.55
59391;BME280;53405;57.012;40.984;2022-12-07T13:58:49;101478.34;;;-9.30;76.84
59391;BME280;53405;57.012;40.984;2022-12-07T14:01:36;101484.25;;;-9.24;76.09
59391;BME280;53405;57.012;40.984;2022-12-07T14:04:37;101479.06;;;-9.15;77.32
59391;BME280;53405;57.012;40.984;2022-12-07T14:07:27;101473.13;;;-9.17;77.60
59391;BME280;53405;57.012;40.984;2022-12-07T14:10:36;101485.97;;;-9.27;78.10
59391;BME280;53405;57.012;40.984;2022-12-07T14:13:31;101486.03;;;-9.34;77.41
59391;BME280;53405;57.012;40.984;2022-12-07T14:19:44;101488.31;;;-9.08;78.36
59391;BME280;53405;57.012;40.984;2022-12-07T14:22:38;101487.53;;;-9.13;77.18
59391;BME280;53405;57.012;40.984;2022-12-07T14:25:32;101478.34;;;-9.30;76.95
59391;BME280;53405;57.012;40.984;2022-12-07T14:28:33;101474.28;;;-9.51;77.31
59391;BME280;53405;57.012;40.984;2022-12-07T14:31:24;101479.38;;;-9.52;76.50
59391;BME280;53405;57.012;40.984;2022-12-07T14:34:16;101486.16;;;-9.47;78.17
59391;BME280;53405;57.012;40.984;2022-12-07T14:37:06;101481.94;;;-9.52;77.17
59391;BME280;53405;57.012;40.984;2022-12-07T14:39:54;101483.66;;;-9.53;77.90
59391;BME280;53405;57.012;40.984;2022-12-07T14:42:44;101466.56;;;-9.45;79.51
59391;BME280;53405;57.012;40.984;2022-12-07T14:45:33;101467.53;;;-9.56;77.68
59391;BME280;53405;57.012;40.984;2022-12-07T14:48:21;101475.16;;;-9.52;77.60
59391;BME280;53405;57.012;40.984;2022-12-07T14:51:29;101475.31;;;-9.70;77.09
59391;BME280;53405;57.012;40.984;2022-12-07T14:54:36;101480.50;;;-9.84;77.70
59391;BME280;53405;57.012;40.984;2022-12-07T14:57:24;101462.69;;;-9.90;78.82
59391;BME280;53405;57.012;40.984;2022-12-07T15:00:15;101485.63;;;-9.86;78.76
59391;BME280;53405;57.012;40.984;2022-12-07T15:03:04;101483.91;;;-9.84;77.95
59391;BME280;53405;57.012;40.984;2022-12-07T15:05:52;101459.38;;;-10.00;79.54
59391;BME280;53405;57.012;40.984;2022-12-07T15:08:40;101472.91;;;-9.92;77.91
59391;BME280;53405;57.012;40.984;2022-12-07T15:11:27;101477.19;;;-9.97;77.25
59391;BME280;53405;57.012;40.984;2022-12-07T15:14:15;101469.59;;;-10.03;77.83
59391;BME280;53405;57.012;40.984;2022-12-07T15:17:03;101456.13;;;-10.19;77.68
59391;BME280;53405;57.012;40.984;2022-12-07T15:20:42;101467.09;;;-10.09;78.18
59391;BME280;53405;57.012;40.984;2022-12-07T15:23:30;101463.69;;;-10.08;78.32
59391;BME280;53405;57.012;40.984;2022-12-07T15:26:19;101467.00;;;-9.97;80.02
59391;BME280;53405;57.012;40.984;2022-12-07T15:29:07;101460.19;;;-9.96;78.77
59391;BME280;53405;57.012;40.984;2022-12-07T15:31:55;101453.47;;;-10.05;78.19
59391;BME280;53405;57.012;40.984;2022-12-07T15:34:44;101461.09;;;-10.01;77.75
59391;BME280;53405;57.012;40.984;2022-12-07T15:37:32;101468.72;;;-9.99;78.13
59391;BME280;53405;57.012;40.984;2022-12-07T15:40:19;101466.94;;;-9.89;77.05
59391;BME280;53405;57.012;40.984;2022-12-07T15:43:10;101441.63;;;-10.12;76.62
59391;BME280;53405;57.012;40.984;2022-12-07T15:46:18;101465.34;;;-10.03;78.19
59391;BME280;53405;57.012;40.984;2022-12-07T15:49:14;101450.94;;;-10.07;77.43
59391;BME280;53405;57.012;40.984;2022-12-07T15:52:01;101445.84;;;-10.07;75.66
59391;BME280;53405;57.012;40.984;2022-12-07T15:54:49;101466.13;;;-9.93;77.33
59391;BME280;53405;57.012;40.984;2022-12-07T15:57:37;101457.78;;;-10.10;76.11
59391;BME280;53405;57.012;40.984;2022-12-07T16:00:25;101458.59;;;-10.08;78.18
59391;BME280;53405;57.012;40.984;2022-12-07T16:03:13;101461.97;;;-10.06;76.30
59391;BME280;53405;57.012;40.984;2022-12-07T16:06:00;101461.06;;;-9.97;78.73
59391;BME280;53405;57.012;40.984;2022-12-07T16:08:48;101464.47;;;-10.00;77.24
59391;BME280;53405;57.012;40.984;2022-12-07T16:11:36;101459.50;;;-10.20;76.60
59391;BME280;53405;57.012;40.984;2022-12-07T16:14:23;101453.50;;;-10.11;76.94
59391;BME280;53405;57.012;40.984;2022-12-07T16:17:11;101462.13;;;-10.29;76.49
59391;BME280;53405;57.012;40.984;2022-12-07T16:19:59;101443.34;;;-10.16;76.71